sensor_id;sensor_type;location;lat;lon;timestamp;temperature;humidity
56172;DHT22;42052;41.634;-0.946;2024-03-22T00:01:54;23.10;48.10
56172;DHT22;42052;41.634;-0.946;2024-03-22T00:04:22;23.00;48.00
56172;DHT22;42052;41.634;-0.946;2024-03-22T00:06:49;23.10;48.80
56172;DHT22;42052;41.634;-0.946;2024-03-22T00:09:16;23.10;48.00
56172;DHT22;42052;41.634;-0.946;2024-03-22T00:11:43;23.10;48.00
56172;DHT22;42052;41.634;-0.946;2024-03-22T00:14:10;23.10;48.70
56172;DHT22;42052;41.634;-0.946;2024-03-22T00:16:36;23.00;48.00
56172;DHT22;42052;41.634;-0.946;2024-03-22T00:19:03;23.10;48.00
56172;DHT22;42052;41.634;-0.946;2024-03-22T00:21:29;23.00;48.00
56172;DHT22;42052;41.634;-0.946;2024-03-22T00:23:56;23.00;48.00
56172;DHT22;42052;41.634;-0.946;2024-03-22T00:26:23;23.00;48.00
56172;DHT22;42052;41.634;-0.946;2024-03-22T00:28:49;23.00;48.00
56172;DHT22;42052;41.634;-0.946;2024-03-22T00:31:14;23.00;48.00
56172;DHT22;42052;41.634;-0.946;2024-03-22T00:33:41;23.00;48.00
56172;DHT22;42052;41.634;-0.946;2024-03-22T00:36:07;23.00;48.00
56172;DHT22;42052;41.634;-0.946;2024-03-22T00:38:34;23.00;48.00
56172;DHT22;42052;41.634;-0.946;2024-03-22T00:41:00;23.00;48.00
56172;DHT22;42052;41.634;-0.946;2024-03-22T00:43:26;23.00;47.90
56172;DHT22;42052;41.634;-0.946;2024-03-22T00:45:52;23.00;48.00
56172;DHT22;42052;41.634;-0.946;2024-03-22T00:48:18;23.00;48.00
56172;DHT22;42052;41.634;-0.946;2024-03-22T00:50:44;23.00;48.00
56172;DHT22;42052;41.634;-0.946;2024-03-22T00:53:09;23.00;48.00
56172;DHT22;42052;41.634;-0.946;2024-03-22T00:55:35;23.00;47.90
56172;DHT22;42052;41.634;-0.946;2024-03-22T00:58:01;23.00;48.00
56172;DHT22;42052;41.634;-0.946;2024-03-22T01:00:27;23.00;48.00
56172;DHT22;42052;41.634;-0.946;2024-03-22T01:02:53;23.00;48.00
56172;DHT22;42052;41.634;-0.946;2024-03-22T01:05:19;23.00;48.00
56172;DHT22;42052;41.634;-0.946;2024-03-22T01:07:45;23.00;48.00
56172;DHT22;42052;41.634;-0.946;2024-03-22T01:10:11;23.00;48.00
56172;DHT22;42052;41.634;-0.946;2024-03-22T01:12:38;23.00;48.10
56172;DHT22;42052;41.634;-0.946;2024-03-22T01:15:05;23.00;48.10
56172;DHT22;42052;41.634;-0.946;2024-03-22T01:17:32;23.00;48.00
56172;DHT22;42052;41.634;-0.946;2024-03-22T01:19:58;23.00;48.00
56172;DHT22;42052;41.634;-0.946;2024-03-22T01:22:24;23.00;48.00
56172;DHT22;42052;41.634;-0.946;2024-03-22T01:24:50;23.00;48.00
56172;DHT22;42052;41.634;-0.946;2024-03-22T01:27:16;23.00;48.00
56172;DHT22;42052;41.634;-0.946;2024-03-22T01:29:41;23.00;48.00
56172;DHT22;42052;41.634;-0.946;2024-03-22T01:32:07;23.00;48.00
56172;DHT22;42052;41.634;-0.946;2024-03-22T01:34:34;23.00;48.00
56172;DHT22;42052;41.634;-0.946;2024-03-22T01:37:02;23.00;48.00
56172;DHT22;42052;41.634;-0.946;2024-03-22T01:39:28;23.00;48.10
56172;DHT22;42052;41.634;-0.946;2024-03-22T01:41:54;23.00;48.00
56172;DHT22;42052;41.634;-0.946;2024-03-22T01:44:31;22.90;47.90
56172;DHT22;42052;41.634;-0.946;2024-03-22T01:46:57;23.00;48.00
56172;DHT22;42052;41.634;-0.946;2024-03-22T01:49:25;23.00;48.00
56172;DHT22;42052;41.634;-0.946;2024-03-22T01:51:51;22.90;48.00
56172;DHT22;42052;41.634;-0.946;2024-03-22T01:54:20;23.00;48.00
56172;DHT22;42052;41.634;-0.946;2024-03-22T01:56:46;23.00;48.00
56172;DHT22;42052;41.634;-0.946;2024-03-22T01:59:13;23.00;48.00
56172;DHT22;42052;41.634;-0.946;2024-03-22T02:01:39;23.00;48.00
56172;DHT22;42052;41.634;-0.946;2024-03-22T02:04:05;23.00;48.00
56172;DHT22;42052;41.634;-0.946;2024-03-22T02:06:32;23.00;47.90
56172;DHT22;42052;41.634;-0.946;2024-03-22T02:08:59;23.00;48.00
56172;DHT22;42052;41.634;-0.946;2024-03-22T02:11:26;22.90;47.90
56172;DHT22;42052;41.634;-0.946;2024-03-22T02:13:52;23.00;48.00
56172;DHT22;42052;41.634;-0.946;2024-03-22T02:16:18;22.90;47.90
56172;DHT22;42052;41.634;-0.946;2024-03-22T02:18:44;23.00;48.00
56172;DHT22;42052;41.634;-0.946;2024-03-22T02:21:10;22.90;48.00
56172;DHT22;42052;41.634;-0.946;2024-03-22T02:23:37;22.90;47.90
56172;DHT22;42052;41.634;-0.946;2024-03-22T02:26:04;22.90;48.00
56172;DHT22;42052;41.634;-0.946;2024-03-22T02:28:31;22.90;47.90
56172;DHT22;42052;41.634;-0.946;2024-03-22T02:31:00;23.00;48.00
56172;DHT22;42052;41.634;-0.946;2024-03-22T02:33:26;23.00;48.00
56172;DHT22;42052;41.634;-0.946;2024-03-22T02:35:52;22.90;48.00
56172;DHT22;42052;41.634;-0.946;2024-03-22T02:38:18;22.90;48.00
56172;DHT22;42052;41.634;-0.946;2024-03-22T02:40:48;22.90;48.00
56172;DHT22;42052;41.634;-0.946;2024-03-22T02:43:14;22.90;48.00
56172;DHT22;42052;41.634;-0.946;2024-03-22T02:45:40;22.90;47.90
56172;DHT22;42052;41.634;-0.946;2024-03-22T02:48:06;22.90;48.00
56172;DHT22;42052;41.634;-0.946;2024-03-22T02:50:36;22.90;48.00
56172;DHT22;42052;41.634;-0.946;2024-03-22T02:53:03;22.90;48.00
56172;DHT22;42052;41.634;-0.946;2024-03-22T02:55:30;22.90;48.00
56172;DHT22;42052;41.634;-0.946;2024-03-22T02:57:58;22.90;48.00
56172;DHT22;42052;41.634;-0.946;2024-03-22T03:00:26;22.90;48.00
56172;DHT22;42052;41.634;-0.946;2024-03-22T03:02:52;22.90;48.10
56172;DHT22;42052;41.634;-0.946;2024-03-22T03:05:18;22.90;48.00
56172;DHT22;42052;41.634;-0.946;2024-03-22T03:07:44;22.90;48.00
56172;DHT22;42052;41.634;-0.946;2024-03-22T03:10:10;22.90;48.00
56172;DHT22;42052;41.634;-0.946;2024-03-22T03:12:36;22.90;48.00
56172;DHT22;42052;41.634;-0.946;2024-03-22T03:15:02;22.90;48.00
56172;DHT22;42052;41.634;-0.946;2024-03-22T03:17:28;22.90;48.10
56172;DHT22;42052;41.634;-0.946;2024-03-22T03:19:54;22.90;48.00
56172;DHT22;42052;41.634;-0.946;2024-03-22T03:22:23;22.90;48.00
56172;DHT22;42052;41.634;-0.946;2024-03-22T03:24:49;22.90;48.00
56172;DHT22;42052;41.634;-0.946;2024-03-22T03:27:15;22.90;48.00
56172;DHT22;42052;41.634;-0.946;2024-03-22T03:29:41;22.90;48.00
56172;DHT22;42052;41.634;-0.946;2024-03-22T03:32:07;22.90;48.00
56172;DHT22;42052;41.634;-0.946;2024-03-22T03:34:34;22.90;48.00
56172;DHT22;42052;41.634;-0.946;2024-03-22T03:37:00;22.90;47.90
56172;DHT22;42052;41.634;-0.946;2024-03-22T03:39:27;22.90;48.00
56172;DHT22;42052;41.634;-0.946;2024-03-22T03:41:55;22.90;48.00
56172;DHT22;42052;41.634;-0.946;2024-03-22T03:44:20;22.90;48.00
56172;DHT22;42052;41.634;-0.946;2024-03-22T03:46:46;22.90;48.00
56172;DHT22;42052;41.634;-0.946;2024-03-22T03:49:12;22.90;48.00
56172;DHT22;42052;41.634;-0.946;2024-03-22T03:51:38;22.90;48.00
56172;DHT22;42052;41.634;-0.946;2024-03-22T03:54:04;22.90;48.00
56172;DHT22;42052;41.634;-0.946;2024-03-22T03:56:29;22.80;48.00
56172;DHT22;42052;41.634;-0.946;2024-03-22T03:58:55;22.90;48.00
56172;DHT22;42052;41.634;-0.946;2024-03-22T04:01:21;22.90;48.00
56172;DHT22;42052;41.634;-0.946;2024-03-22T04:03:49;22.90;48.00
56172;DHT22;42052;41.634;-0.946;2024-03-22T04:06:14;22.90;48.00
56172;DHT22;42052;41.634;-0.946;2024-03-22T04:08:40;22.90;48.70
56172;DHT22;42052;41.634;-0.946;2024-03-22T04:11:06;22.80;47.90
56172;DHT22;42052;41.634;-0.946;2024-03-22T04:13:32;22.90;48.00
56172;DHT22;42052;41.634;-0.946;2024-03-22T04:15:59;22.80;47.90
56172;DHT22;42052;41.634;-0.946;2024-03-22T04:18:26;22.90;48.00
56172;DHT22;42052;41.634;-0.946;2024-03-22T04:20:56;22.80;48.00
56172;DHT22;42052;41.634;-0.946;2024-03-22T04:23:23;22.80;47.90
56172;DHT22;42052;41.634;-0.946;2024-03-22T04:25:56;22.80;48.00
56172;DHT22;42052;41.634;-0.946;2024-03-22T04:28:23;22.80;48.00
56172;DHT22;42052;41.634;-0.946;2024-03-22T04:31:04;22.80;48.00
56172;DHT22;42052;41.634;-0.946;2024-03-22T04:33:31;22.80;48.00
56172;DHT22;42052;41.634;-0.946;2024-03-22T04:35:58;22.80;48.00
56172;DHT22;42052;41.634;-0.946;2024-03-22T04:38:26;22.80;48.00
56172;DHT22;42052;41.634;-0.946;2024-03-22T04:40:53;22.80;47.90
56172;DHT22;42052;41.634;-0.946;2024-03-22T04:43:20;22.80;47.90
56172;DHT22;42052;41.634;-0.946;2024-03-22T04:45:46;22.80;47.90
56172;DHT22;42052;41.634;-0.946;2024-03-22T04:48:22;22.80;47.90
56172;DHT22;42052;41.634;-0.946;2024-03-22T04:50:50;22.80;48.00
56172;DHT22;42052;41.634;-0.946;2024-03-22T04:53:17;22.80;48.00
56172;DHT22;42052;41.634;-0.946;2024-03-22T04:55:44;22.80;48.00
56172;DHT22;42052;41.634;-0.946;2024-03-22T04:58:28;22.80;48.00
56172;DHT22;42052;41.634;-0.946;2024-03-22T05:00:58;22.80;47.90
56172;DHT22;42052;41.634;-0.946;2024-03-22T05:03:23;22.80;47.90
56172;DHT22;42052;41.634;-0.946;2024-03-22T05:05:50;22.80;47.90
56172;DHT22;42052;41.634;-0.946;2024-03-22T05:08:16;22.80;47.80
56172;DHT22;42052;41.634;-0.946;2024-03-22T05:10:42;22.80;47.90
56172;DHT22;42052;41.634;-0.946;2024-03-22T05:13:08;22.80;47.90
56172;DHT22;42052;41.634;-0.946;2024-03-22T05:15:34;22.80;47.90
56172;DHT22;42052;41.634;-0.946;2024-03-22T05:18:00;22.80;47.90
56172;DHT22;42052;41.634;-0.946;2024-03-22T05:20:26;22.80;47.80
56172;DHT22;42052;41.634;-0.946;2024-03-22T05:22:52;22.80;47.90
56172;DHT22;42052;41.634;-0.946;2024-03-22T05:25:18;22.80;47.90
56172;DHT22;42052;41.634;-0.946;2024-03-22T05:27:45;22.80;47.90
56172;DHT22;42052;41.634;-0.946;2024-03-22T05:30:12;22.80;47.90
56172;DHT22;42052;41.634;-0.946;2024-03-22T05:32:39;22.80;47.90
56172;DHT22;42052;41.634;-0.946;2024-03-22T05:35:06;22.80;47.90
56172;DHT22;42052;41.634;-0.946;2024-03-22T05:37:32;22.80;47.90
56172;DHT22;42052;41.634;-0.946;2024-03-22T05:40:00;22.80;48.00
56172;DHT22;42052;41.634;-0.946;2024-03-22T05:42:26;22.80;47.90
56172;DHT22;42052;41.634;-0.946;2024-03-22T05:44:52;22.80;47.80
56172;DHT22;42052;41.634;-0.946;2024-03-22T05:47:18;22.80;47.90
56172;DHT22;42052;41.634;-0.946;2024-03-22T05:49:45;22.70;47.90
56172;DHT22;42052;41.634;-0.946;2024-03-22T05:52:11;22.70;47.70
56172;DHT22;42052;41.634;-0.946;2024-03-22T05:54:37;22.70;47.90
56172;DHT22;42052;41.634;-0.946;2024-03-22T05:57:03;22.80;47.90
56172;DHT22;42052;41.634;-0.946;2024-03-22T05:59:31;22.70;47.90
56172;DHT22;42052;41.634;-0.946;2024-03-22T06:01:57;22.70;47.90
56172;DHT22;42052;41.634;-0.946;2024-03-22T06:04:23;22.70;47.90
56172;DHT22;42052;41.634;-0.946;2024-03-22T06:06:50;22.70;47.90
56172;DHT22;42052;41.634;-0.946;2024-03-22T06:09:16;22.70;47.80
56172;DHT22;42052;41.634;-0.946;2024-03-22T06:11:52;22.80;47.90
56172;DHT22;42052;41.634;-0.946;2024-03-22T06:14:18;22.70;47.90
56172;DHT22;42052;41.634;-0.946;2024-03-22T06:16:44;22.70;47.90
56172;DHT22;42052;41.634;-0.946;2024-03-22T06:19:10;22.70;47.90
56172;DHT22;42052;41.634;-0.946;2024-03-22T06:21:35;22.70;47.90
56172;DHT22;42052;41.634;-0.946;2024-03-22T06:24:01;22.70;47.90
56172;DHT22;42052;41.634;-0.946;2024-03-22T06:26:29;22.70;47.80
56172;DHT22;42052;41.634;-0.946;2024-03-22T06:28:54;22.70;47.90
56172;DHT22;42052;41.634;-0.946;2024-03-22T06:31:20;22.70;47.90
56172;DHT22;42052;41.634;-0.946;2024-03-22T06:33:46;22.70;47.90
56172;DHT22;42052;41.634;-0.946;2024-03-22T06:36:12;22.70;47.90
56172;DHT22;42052;41.634;-0.946;2024-03-22T06:38:38;22.70;47.90
56172;DHT22;42052;41.634;-0.946;2024-03-22T06:41:04;22.70;47.90
56172;DHT22;42052;41.634;-0.946;2024-03-22T06:43:30;22.70;47.90
56172;DHT22;42052;41.634;-0.946;2024-03-22T06:45:56;22.70;47.90
56172;DHT22;42052;41.634;-0.946;2024-03-22T06:48:21;22.70;47.90
56172;DHT22;42052;41.634;-0.946;2024-03-22T06:50:47;22.70;47.90
56172;DHT22;42052;41.634;-0.946;2024-03-22T06:53:13;22.70;47.90
56172;DHT22;42052;41.634;-0.946;2024-03-22T06:55:39;22.70;47.90
56172;DHT22;42052;41.634;-0.946;2024-03-22T06:58:05;22.70;47.90
56172;DHT22;42052;41.634;-0.946;2024-03-22T07:00:31;22.70;47.90
56172;DHT22;42052;41.634;-0.946;2024-03-22T07:03:01;22.70;47.90
56172;DHT22;42052;41.634;-0.946;2024-03-22T07:05:28;22.70;47.90
56172;DHT22;42052;41.634;-0.946;2024-03-22T07:07:54;22.70;47.90
56172;DHT22;42052;41.634;-0.946;2024-03-22T07:10:23;22.70;47.90
56172;DHT22;42052;41.634;-0.946;2024-03-22T07:12:54;22.70;47.90
56172;DHT22;42052;41.634;-0.946;2024-03-22T07:15:23;22.70;47.90
56172;DHT22;42052;41.634;-0.946;2024-03-22T07:17:50;22.70;47.90
56172;DHT22;42052;41.634;-0.946;2024-03-22T07:20:16;22.70;48.00
56172;DHT22;42052;41.634;-0.946;2024-03-22T07:22:42;22.70;47.90
56172;DHT22;42052;41.634;-0.946;2024-03-22T07:25:08;22.60;47.90
56172;DHT22;42052;41.634;-0.946;2024-03-22T07:27:37;22.70;47.90
56172;DHT22;42052;41.634;-0.946;2024-03-22T07:30:03;22.70;47.90
56172;DHT22;42052;41.634;-0.946;2024-03-22T07:32:30;22.70;47.90
56172;DHT22;42052;41.634;-0.946;2024-03-22T07:34:56;22.70;47.90
56172;DHT22;42052;41.634;-0.946;2024-03-22T07:37:22;22.70;48.00
56172;DHT22;42052;41.634;-0.946;2024-03-22T07:39:48;22.70;47.90
56172;DHT22;42052;41.634;-0.946;2024-03-22T07:42:14;22.60;47.90
56172;DHT22;42052;41.634;-0.946;2024-03-22T07:44:43;22.60;47.90
56172;DHT22;42052;41.634;-0.946;2024-03-22T07:47:10;22.60;47.90
56172;DHT22;42052;41.634;-0.946;2024-03-22T07:49:36;22.70;47.90
56172;DHT22;42052;41.634;-0.946;2024-03-22T07:52:02;22.60;47.80
56172;DHT22;42052;41.634;-0.946;2024-03-22T07:54:28;22.60;47.90
56172;DHT22;42052;41.634;-0.946;2024-03-22T07:56:54;22.70;47.90
56172;DHT22;42052;41.634;-0.946;2024-03-22T07:59:20;22.60;47.90
56172;DHT22;42052;41.634;-0.946;2024-03-22T08:01:46;22.60;47.90
56172;DHT22;42052;41.634;-0.946;2024-03-22T08:04:12;22.60;47.80
56172;DHT22;42052;41.634;-0.946;2024-03-22T08:06:38;22.60;47.90
56172;DHT22;42052;41.634;-0.946;2024-03-22T08:09:04;22.70;48.00
56172;DHT22;42052;41.634;-0.946;2024-03-22T08:11:30;22.60;47.90
56172;DHT22;42052;41.634;-0.946;2024-03-22T08:13:56;22.70;47.90
56172;DHT22;42052;41.634;-0.946;2024-03-22T08:16:31;22.60;47.90
56172;DHT22;42052;41.634;-0.946;2024-03-22T08:19:00;22.70;47.90
56172;DHT22;42052;41.634;-0.946;2024-03-22T08:21:26;22.60;47.80
56172;DHT22;42052;41.634;-0.946;2024-03-22T08:23:53;22.70;47.90
56172;DHT22;42052;41.634;-0.946;2024-03-22T08:26:19;22.70;48.00
56172;DHT22;42052;41.634;-0.946;2024-03-22T08:28:46;22.60;47.90
56172;DHT22;42052;41.634;-0.946;2024-03-22T08:31:13;22.60;47.80
56172;DHT22;42052;41.634;-0.946;2024-03-22T08:33:39;22.70;47.90
56172;DHT22;42052;41.634;-0.946;2024-03-22T08:36:05;22.70;47.90
56172;DHT22;42052;41.634;-0.946;2024-03-22T08:38:31;22.60;47.90
56172;DHT22;42052;41.634;-0.946;2024-03-22T08:41:00;22.60;47.90
56172;DHT22;42052;41.634;-0.946;2024-03-22T08:43:26;22.70;47.90
56172;DHT22;42052;41.634;-0.946;2024-03-22T08:45:54;22.70;47.90
56172;DHT22;42052;41.634;-0.946;2024-03-22T08:48:21;22.70;48.00
56172;DHT22;42052;41.634;-0.946;2024-03-22T08:50:47;22.70;47.90
56172;DHT22;42052;41.634;-0.946;2024-03-22T08:53:13;22.70;47.90
56172;DHT22;42052;41.634;-0.946;2024-03-22T08:55:48;22.70;47.90
56172;DHT22;42052;41.634;-0.946;2024-03-22T08:58:17;22.70;47.90
56172;DHT22;42052;41.634;-0.946;2024-03-22T09:00:44;22.70;47.90
56172;DHT22;42052;41.634;-0.946;2024-03-22T09:03:10;22.70;47.90
56172;DHT22;42052;41.634;-0.946;2024-03-22T09:05:36;22.70;47.90
56172;DHT22;42052;41.634;-0.946;2024-03-22T09:08:03;22.70;47.90
56172;DHT22;42052;41.634;-0.946;2024-03-22T09:10:29;22.70;47.80
56172;DHT22;42052;41.634;-0.946;2024-03-22T09:12:56;22.70;48.20
56172;DHT22;42052;41.634;-0.946;2024-03-22T09:15:22;22.70;47.80
56172;DHT22;42052;41.634;-0.946;2024-03-22T09:17:48;22.70;47.80
56172;DHT22;42052;41.634;-0.946;2024-03-22T09:20:14;22.70;47.80
56172;DHT22;42052;41.634;-0.946;2024-03-22T09:22:40;22.70;47.80
56172;DHT22;42052;41.634;-0.946;2024-03-22T09:25:07;22.70;47.80
56172;DHT22;42052;41.634;-0.946;2024-03-22T09:27:33;22.70;47.80
56172;DHT22;42052;41.634;-0.946;2024-03-22T09:29:59;22.70;47.80
56172;DHT22;42052;41.634;-0.946;2024-03-22T09:32:27;22.70;47.80
56172;DHT22;42052;41.634;-0.946;2024-03-22T09:34:53;22.70;47.80
56172;DHT22;42052;41.634;-0.946;2024-03-22T09:37:18;22.70;47.80
56172;DHT22;42052;41.634;-0.946;2024-03-22T09:39:44;22.80;47.80
56172;DHT22;42052;41.634;-0.946;2024-03-22T09:42:15;22.80;47.90
56172;DHT22;42052;41.634;-0.946;2024-03-22T09:44:46;22.80;47.80
56172;DHT22;42052;41.634;-0.946;2024-03-22T09:47:15;22.80;47.80
56172;DHT22;42052;41.634;-0.946;2024-03-22T09:49:42;22.80;47.80
56172;DHT22;42052;41.634;-0.946;2024-03-22T09:52:15;22.80;47.80
56172;DHT22;42052;41.634;-0.946;2024-03-22T09:54:44;22.80;47.80
56172;DHT22;42052;41.634;-0.946;2024-03-22T09:57:15;22.80;47.80
56172;DHT22;42052;41.634;-0.946;2024-03-22T09:59:45;22.80;47.80
56172;DHT22;42052;41.634;-0.946;2024-03-22T10:02:12;22.80;47.80
56172;DHT22;42052;41.634;-0.946;2024-03-22T10:04:41;22.80;48.00
56172;DHT22;42052;41.634;-0.946;2024-03-22T10:07:08;22.80;47.80
56172;DHT22;42052;41.634;-0.946;2024-03-22T10:09:36;22.80;47.70
56172;DHT22;42052;41.634;-0.946;2024-03-22T10:12:02;22.80;47.80
56172;DHT22;42052;41.634;-0.946;2024-03-22T10:14:29;22.80;47.70
56172;DHT22;42052;41.634;-0.946;2024-03-22T10:16:56;22.80;47.70
56172;DHT22;42052;41.634;-0.946;2024-03-22T10:19:23;22.80;47.70
56172;DHT22;42052;41.634;-0.946;2024-03-22T10:22:01;22.80;47.80
56172;DHT22;42052;41.634;-0.946;2024-03-22T10:24:29;22.90;47.80
56172;DHT22;42052;41.634;-0.946;2024-03-22T10:26:55;22.90;47.70
56172;DHT22;42052;41.634;-0.946;2024-03-22T10:29:21;22.90;47.70
56172;DHT22;42052;41.634;-0.946;2024-03-22T10:31:49;22.90;47.80
56172;DHT22;42052;41.634;-0.946;2024-03-22T10:34:16;22.90;47.70
56172;DHT22;42052;41.634;-0.946;2024-03-22T10:36:44;22.90;47.70
56172;DHT22;42052;41.634;-0.946;2024-03-22T10:39:13;22.90;47.60
56172;DHT22;42052;41.634;-0.946;2024-03-22T10:41:41;22.90;47.70
56172;DHT22;42052;41.634;-0.946;2024-03-22T10:44:07;22.90;47.70
56172;DHT22;42052;41.634;-0.946;2024-03-22T10:46:35;22.90;47.70
56172;DHT22;42052;41.634;-0.946;2024-03-22T10:49:02;22.90;47.70
56172;DHT22;42052;41.634;-0.946;2024-03-22T10:51:32;22.90;47.60
56172;DHT22;42052;41.634;-0.946;2024-03-22T10:54:01;22.90;47.70
56172;DHT22;42052;41.634;-0.946;2024-03-22T10:56:29;23.00;47.70
56172;DHT22;42052;41.634;-0.946;2024-03-22T10:58:56;22.90;47.60
56172;DHT22;42052;41.634;-0.946;2024-03-22T11:01:23;22.90;47.60
56172;DHT22;42052;41.634;-0.946;2024-03-22T11:03:49;23.00;47.70
56172;DHT22;42052;41.634;-0.946;2024-03-22T11:06:21;23.00;47.60
56172;DHT22;42052;41.634;-0.946;2024-03-22T11:08:51;23.00;47.60
56172;DHT22;42052;41.634;-0.946;2024-03-22T11:11:18;23.00;47.60
56172;DHT22;42052;41.634;-0.946;2024-03-22T11:13:47;23.00;47.60
56172;DHT22;42052;41.634;-0.946;2024-03-22T11:16:16;23.00;47.60
56172;DHT22;42052;41.634;-0.946;2024-03-22T11:18:42;23.00;47.60
56172;DHT22;42052;41.634;-0.946;2024-03-22T11:21:08;23.00;47.50
56172;DHT22;42052;41.634;-0.946;2024-03-22T11:23:36;23.00;47.50
56172;DHT22;42052;41.634;-0.946;2024-03-22T11:26:03;23.00;47.60
56172;DHT22;42052;41.634;-0.946;2024-03-22T11:28:30;23.00;47.50
56172;DHT22;42052;41.634;-0.946;2024-03-22T11:30:56;23.00;47.50
56172;DHT22;42052;41.634;-0.946;2024-03-22T11:33:23;23.00;47.50
56172;DHT22;42052;41.634;-0.946;2024-03-22T11:35:48;23.00;47.50
56172;DHT22;42052;41.634;-0.946;2024-03-22T11:38:15;23.00;47.50
56172;DHT22;42052;41.634;-0.946;2024-03-22T11:40:43;23.10;47.60
56172;DHT22;42052;41.634;-0.946;2024-03-22T11:43:10;23.00;47.50
56172;DHT22;42052;41.634;-0.946;2024-03-22T11:45:39;23.10;47.50
56172;DHT22;42052;41.634;-0.946;2024-03-22T11:48:06;23.10;47.40
56172;DHT22;42052;41.634;-0.946;2024-03-22T11:50:31;23.10;47.40
56172;DHT22;42052;41.634;-0.946;2024-03-22T11:52:58;23.10;47.40
56172;DHT22;42052;41.634;-0.946;2024-03-22T11:55:27;23.10;47.40
56172;DHT22;42052;41.634;-0.946;2024-03-22T11:57:53;23.10;47.40
56172;DHT22;42052;41.634;-0.946;2024-03-22T12:00:19;23.10;47.40
56172;DHT22;42052;41.634;-0.946;2024-03-22T12:02:45;23.20;47.40
56172;DHT22;42052;41.634;-0.946;2024-03-22T12:05:11;23.20;47.40
56172;DHT22;42052;41.634;-0.946;2024-03-22T12:07:37;23.20;47.30
56172;DHT22;42052;41.634;-0.946;2024-03-22T12:10:06;23.20;47.40
56172;DHT22;42052;41.634;-0.946;2024-03-22T12:12:32;23.20;47.30
56172;DHT22;42052;41.634;-0.946;2024-03-22T12:14:58;23.20;47.40
56172;DHT22;42052;41.634;-0.946;2024-03-22T12:17:24;23.10;47.30
56172;DHT22;42052;41.634;-0.946;2024-03-22T12:19:49;23.10;47.30
56172;DHT22;42052;41.634;-0.946;2024-03-22T12:22:15;23.20;47.40
56172;DHT22;42052;41.634;-0.946;2024-03-22T12:24:41;23.20;47.40
56172;DHT22;42052;41.634;-0.946;2024-03-22T12:27:07;23.20;47.30
56172;DHT22;42052;41.634;-0.946;2024-03-22T12:29:33;23.20;47.30
56172;DHT22;42052;41.634;-0.946;2024-03-22T12:32:00;23.20;47.30
56172;DHT22;42052;41.634;-0.946;2024-03-22T12:34:35;23.20;47.30
56172;DHT22;42052;41.634;-0.946;2024-03-22T12:37:03;23.20;47.30
56172;DHT22;42052;41.634;-0.946;2024-03-22T12:39:29;23.20;47.20
56172;DHT22;42052;41.634;-0.946;2024-03-22T12:41:55;23.20;47.30
56172;DHT22;42052;41.634;-0.946;2024-03-22T12:44:21;23.20;47.30
56172;DHT22;42052;41.634;-0.946;2024-03-22T12:46:47;23.20;47.30
56172;DHT22;42052;41.634;-0.946;2024-03-22T12:49:13;23.20;47.20
56172;DHT22;42052;41.634;-0.946;2024-03-22T12:51:39;23.20;47.20
56172;DHT22;42052;41.634;-0.946;2024-03-22T12:54:05;23.30;47.20
56172;DHT22;42052;41.634;-0.946;2024-03-22T12:56:33;23.20;47.20
56172;DHT22;42052;41.634;-0.946;2024-03-22T12:58:59;23.20;47.20
56172;DHT22;42052;41.634;-0.946;2024-03-22T13:01:25;23.30;47.20
56172;DHT22;42052;41.634;-0.946;2024-03-22T13:03:50;23.30;47.20
56172;DHT22;42052;41.634;-0.946;2024-03-22T13:06:16;23.20;47.20
56172;DHT22;42052;41.634;-0.946;2024-03-22T13:08:42;23.30;47.20
56172;DHT22;42052;41.634;-0.946;2024-03-22T13:11:08;23.30;47.20
56172;DHT22;42052;41.634;-0.946;2024-03-22T13:13:35;23.30;47.20
56172;DHT22;42052;41.634;-0.946;2024-03-22T13:16:01;23.30;47.20
56172;DHT22;42052;41.634;-0.946;2024-03-22T13:18:28;23.30;47.20
56172;DHT22;42052;41.634;-0.946;2024-03-22T13:20:54;23.30;47.20
56172;DHT22;42052;41.634;-0.946;2024-03-22T13:23:20;23.30;47.20
56172;DHT22;42052;41.634;-0.946;2024-03-22T13:25:46;23.30;47.20
56172;DHT22;42052;41.634;-0.946;2024-03-22T13:28:12;23.30;47.10
56172;DHT22;42052;41.634;-0.946;2024-03-22T13:30:38;23.30;47.10
56172;DHT22;42052;41.634;-0.946;2024-03-22T13:33:04;23.30;47.10
56172;DHT22;42052;41.634;-0.946;2024-03-22T13:35:30;23.30;47.10
56172;DHT22;42052;41.634;-0.946;2024-03-22T13:37:56;23.30;47.10
56172;DHT22;42052;41.634;-0.946;2024-03-22T13:40:22;23.30;47.10
56172;DHT22;42052;41.634;-0.946;2024-03-22T13:42:48;23.40;47.20
56172;DHT22;42052;41.634;-0.946;2024-03-22T13:45:18;23.40;47.10
56172;DHT22;42052;41.634;-0.946;2024-03-22T13:47:43;23.30;47.10
56172;DHT22;42052;41.634;-0.946;2024-03-22T13:50:09;23.40;47.20
56172;DHT22;42052;41.634;-0.946;2024-03-22T13:52:35;23.40;47.20
56172;DHT22;42052;41.634;-0.946;2024-03-22T13:55:02;23.40;47.10
56172;DHT22;42052;41.634;-0.946;2024-03-22T13:57:28;23.30;47.10
56172;DHT22;42052;41.634;-0.946;2024-03-22T13:59:54;23.30;47.10
56172;DHT22;42052;41.634;-0.946;2024-03-22T14:02:19;23.30;47.10
56172;DHT22;42052;41.634;-0.946;2024-03-22T14:04:45;23.30;47.10
56172;DHT22;42052;41.634;-0.946;2024-03-22T14:07:11;23.40;47.10
56172;DHT22;42052;41.634;-0.946;2024-03-22T14:09:37;23.30;47.10
56172;DHT22;42052;41.634;-0.946;2024-03-22T14:12:03;23.40;47.10
56172;DHT22;42052;41.634;-0.946;2024-03-22T14:14:29;23.40;47.10
56172;DHT22;42052;41.634;-0.946;2024-03-22T14:16:55;23.40;47.10
56172;DHT22;42052;41.634;-0.946;2024-03-22T14:19:21;23.40;47.10
56172;DHT22;42052;41.634;-0.946;2024-03-22T14:21:46;23.40;47.10
56172;DHT22;42052;41.634;-0.946;2024-03-22T14:24:13;23.40;47.10
56172;DHT22;42052;41.634;-0.946;2024-03-22T14:26:39;23.40;47.10
56172;DHT22;42052;41.634;-0.946;2024-03-22T14:29:11;23.40;47.10
56172;DHT22;42052;41.634;-0.946;2024-03-22T14:31:38;23.40;47.00
56172;DHT22;42052;41.634;-0.946;2024-03-22T14:34:06;23.40;47.00
56172;DHT22;42052;41.634;-0.946;2024-03-22T14:36:32;23.40;47.00
56172;DHT22;42052;41.634;-0.946;2024-03-22T14:38:58;23.40;47.00
56172;DHT22;42052;41.634;-0.946;2024-03-22T14:41:24;23.40;47.00
56172;DHT22;42052;41.634;-0.946;2024-03-22T14:43:50;23.40;47.00
56172;DHT22;42052;41.634;-0.946;2024-03-22T14:46:16;23.40;47.00
56172;DHT22;42052;41.634;-0.946;2024-03-22T14:48:45;23.40;47.00
56172;DHT22;42052;41.634;-0.946;2024-03-22T14:51:11;23.40;47.00
56172;DHT22;42052;41.634;-0.946;2024-03-22T14:53:37;23.40;47.00
56172;DHT22;42052;41.634;-0.946;2024-03-22T14:56:03;23.40;46.90
56172;DHT22;42052;41.634;-0.946;2024-03-22T14:58:36;23.40;47.00
56172;DHT22;42052;41.634;-0.946;2024-03-22T15:01:03;23.40;46.90
56172;DHT22;42052;41.634;-0.946;2024-03-22T15:03:30;23.40;46.90
56172;DHT22;42052;41.634;-0.946;2024-03-22T15:06:00;23.40;46.90
56172;DHT22;42052;41.634;-0.946;2024-03-22T15:08:26;23.40;46.80
56172;DHT22;42052;41.634;-0.946;2024-03-22T15:10:54;23.40;46.80
56172;DHT22;42052;41.634;-0.946;2024-03-22T15:13:20;23.40;46.80